sensor_id;sensor_type;location;lat;lon;timestamp;pressure;altitude;pressure_sealevel;temperature;humidity
64895;BME280;51588;53.702;10.208;2022-09-03T00:01:08;101465.41;;;23.73;44.50
64895;BME280;51588;53.702;10.208;2022-09-03T00:03:42;101456.13;;;23.62;44.42
64895;BME280;51588;53.702;10.208;2022-09-03T00:06:13;101463.53;;;23.73;44.62
64895;BME280;51588;53.702;10.208;2022-09-03T00:08:45;101469.78;;;23.74;44.30
64895;BME280;51588;53.702;10.208;2022-09-03T00:11:18;101467.53;;;23.71;44.20
64895;BME280;51588;53.702;10.208;2022-09-03T00:13:50;101471.06;;;23.71;44.39
64895;BME280;51588;53.702;10.208;2022-09-03T00:16:20;101467.53;;;23.71;44.67
64895;BME280;51588;53.702;10.208;2022-09-03T00:18:53;101464.81;;;23.71;44.66
64895;BME280;51588;53.702;10.208;2022-09-03T00:21:30;101460.63;;;23.68;44.30
64895;BME280;51588;53.702;10.208;2022-09-03T00:24:02;101463.16;;;23.70;44.35
64895;BME280;51588;53.702;10.208;2022-09-03T00:26:33;101467.13;;;23.67;44.37
64895;BME280;51588;53.702;10.208;2022-09-03T00:29:04;101444.91;;;23.52;44.58
64895;BME280;51588;53.702;10.208;2022-09-03T00:31:34;101461.09;;;23.65;44.71
64895;BME280;51588;53.702;10.208;2022-09-03T00:34:07;101467.34;;;23.66;44.49
64895;BME280;51588;53.702;10.208;2022-09-03T00:36:38;101464.84;;;23.64;44.48
64895;BME280;51588;53.702;10.208;2022-09-03T00:39:09;101460.47;;;23.63;44.70
64895;BME280;51588;53.702;10.208;2022-09-03T00:41:38;101474.06;;;23.63;44.44
64895;BME280;51588;53.702;10.208;2022-09-03T00:44:24;101462.38;;;23.63;44.44
64895;BME280;51588;53.702;10.208;2022-09-03T00:47:00;101466.34;;;23.60;44.61
64895;BME280;51588;53.702;10.208;2022-09-03T00:49:40;101458.00;;;23.62;44.62
64895;BME280;51588;53.702;10.208;2022-09-03T00:52:17;101454.06;;;23.58;44.48
64895;BME280;51588;53.702;10.208;2022-09-03T00:54:55;101457.38;;;23.60;44.65
64895;BME280;51588;53.702;10.208;2022-09-03T00:57:37;101463.63;;;23.60;44.56
64895;BME280;51588;53.702;10.208;2022-09-03T01:00:13;101454.66;;;23.60;44.35
64895;BME280;51588;53.702;10.208;2022-09-03T01:02:52;101453.00;;;23.59;44.50
64895;BME280;51588;53.702;10.208;2022-09-03T01:05:34;101447.59;;;23.59;44.40
64895;BME280;51588;53.702;10.208;2022-09-03T01:08:13;101458.66;;;23.57;44.53
64895;BME280;51588;53.702;10.208;2022-09-03T01:10:49;101449.69;;;23.57;44.26
64895;BME280;51588;53.702;10.208;2022-09-03T01:13:21;101451.56;;;23.56;44.52
64895;BME280;51588;53.702;10.208;2022-09-03T01:15:58;101306.63;;;22.58;44.41
64895;BME280;51588;53.702;10.208;2022-09-03T01:18:33;101454.72;;;23.53;44.48
64895;BME280;51588;53.702;10.208;2022-09-03T01:21:29;101461.00;;;23.54;44.29
64895;BME280;51588;53.702;10.208;2022-09-03T01:24:23;101460.16;;;23.53;44.43
64895;BME280;51588;53.702;10.208;2022-09-03T01:27:08;101456.41;;;23.54;44.29
64895;BME280;51588;53.702;10.208;2022-09-03T01:29:46;101459.31;;;23.53;44.43
64895;BME280;51588;53.702;10.208;2022-09-03T01:32:24;101459.94;;;23.55;44.44
64895;BME280;51588;53.702;10.208;2022-09-03T01:35:00;101450.34;;;23.52;44.47
64895;BME280;51588;53.702;10.208;2022-09-03T01:37:37;101452.47;;;23.50;44.63
64895;BME280;51588;53.702;10.208;2022-09-03T01:40:17;101292.50;;;22.50;44.39
64895;BME280;51588;53.702;10.208;2022-09-03T01:43:00;101454.94;;;23.52;44.26
64895;BME280;51588;53.702;10.208;2022-09-03T01:45:46;101453.28;;;23.51;44.30
64895;BME280;51588;53.702;10.208;2022-09-03T01:48:32;101468.75;;;23.50;44.58
64895;BME280;51588;53.702;10.208;2022-09-03T01:51:10;101454.34;;;23.50;44.23
64895;BME280;51588;53.702;10.208;2022-09-03T01:53:54;101454.56;;;23.48;44.44
64895;BME280;51588;53.702;10.208;2022-09-03T01:56:36;101460.22;;;23.47;44.32
64895;BME280;51588;53.702;10.208;2022-09-03T01:59:13;101460.22;;;23.47;44.37
64895;BME280;51588;53.702;10.208;2022-09-03T02:01:52;101455.84;;;23.46;44.47
64895;BME280;51588;53.702;10.208;2022-09-03T02:04:23;101454.16;;;23.45;44.34
64895;BME280;51588;53.702;10.208;2022-09-03T02:06:50;101449.56;;;23.45;44.33
64895;BME280;51588;53.702;10.208;2022-09-03T02:09:18;101455.63;;;23.47;44.33
64895;BME280;51588;53.702;10.208;2022-09-03T02:11:48;101457.50;;;23.47;44.32
64895;BME280;51588;53.702;10.208;2022-09-03T02:14:17;101447.69;;;23.46;44.26
64895;BME280;51588;53.702;10.208;2022-09-03T02:16:44;101448.31;;;23.41;44.38
64895;BME280;51588;53.702;10.208;2022-09-03T02:19:14;101446.44;;;23.42;44.30
64895;BME280;51588;53.702;10.208;2022-09-03T02:21:46;101449.81;;;23.44;44.41
64895;BME280;51588;53.702;10.208;2022-09-03T02:24:14;101446.25;;;23.43;44.24
64895;BME280;51588;53.702;10.208;2022-09-03T02:26:41;101448.16;;;23.43;44.37
64895;BME280;51588;53.702;10.208;2022-09-03T02:29:08;101445.59;;;23.41;44.38
64895;BME280;51588;53.702;10.208;2022-09-03T02:31:35;101444.59;;;23.42;44.16
64895;BME280;51588;53.702;10.208;2022-09-03T02:34:02;101446.44;;;23.42;44.19
64895;BME280;51588;53.702;10.208;2022-09-03T02:36:31;101448.31;;;23.41;44.34
64895;BME280;51588;53.702;10.208;2022-09-03T02:38:59;101415.91;;;23.21;44.28
64895;BME280;51588;53.702;10.208;2022-09-03T02:41:26;101448.31;;;23.41;44.16
64895;BME280;51588;53.702;10.208;2022-09-03T02:43:57;101441.22;;;23.40;44.26
64895;BME280;51588;53.702;10.208;2022-09-03T02:46:33;101445.22;;;23.38;44.26
64895;BME280;51588;53.702;10.208;2022-09-03T02:48:59;101443.78;;;23.35;44.44
64895;BME280;51588;53.702;10.208;2022-09-03T02:51:32;101442.50;;;23.38;44.24
64895;BME280;51588;53.702;10.208;2022-09-03T02:54:00;101434.81;;;23.35;44.16
64895;BME280;51588;53.702;10.208;2022-09-03T02:56:26;101440.91;;;23.30;44.33
64895;BME280;51588;53.702;10.208;2022-09-03T02:58:53;101441.06;;;23.35;44.26
64895;BME280;51588;53.702;10.208;2022-09-03T03:01:20;101393.59;;;22.95;44.11
64895;BME280;51588;53.702;10.208;2022-09-03T03:03:47;101441.28;;;23.34;44.17
64895;BME280;51588;53.702;10.208;2022-09-03T03:06:13;101447.56;;;23.34;44.13
64895;BME280;51588;53.702;10.208;2022-09-03T03:08:41;101439.63;;;23.33;44.22
64895;BME280;51588;53.702;10.208;2022-09-03T03:11:08;101441.53;;;23.32;44.20
64895;BME280;51588;53.702;10.208;2022-09-03T03:13:35;101446.72;;;23.34;44.20
64895;BME280;51588;53.702;10.208;2022-09-03T03:16:04;101442.13;;;23.34;44.12
64895;BME280;51588;53.702;10.208;2022-09-03T03:18:31;101447.34;;;23.36;44.25
64895;BME280;51588;53.702;10.208;2022-09-03T03:21:03;101443.63;;;23.30;44.14
64895;BME280;51588;53.702;10.208;2022-09-03T03:23:30;101444.44;;;23.31;44.25
64895;BME280;51588;53.702;10.208;2022-09-03T03:26:01;101441.72;;;23.31;44.07
64895;BME280;51588;53.702;10.208;2022-09-03T03:28:28;101440.91;;;23.30;44.16
64895;BME280;51588;53.702;10.208;2022-09-03T03:30:56;101439.47;;;23.27;44.16
64895;BME280;51588;53.702;10.208;2022-09-03T03:33:23;101439.47;;;23.27;43.91
64895;BME280;51588;53.702;10.208;2022-09-03T03:35:49;101440.53;;;23.26;44.17
64895;BME280;51588;53.702;10.208;2022-09-03T03:38:16;101447.16;;;23.31;44.07
64895;BME280;51588;53.702;10.208;2022-09-03T03:40:42;101442.19;;;23.27;44.11
64895;BME280;51588;53.702;10.208;2022-09-03T03:43:10;101444.06;;;23.27;44.30
64895;BME280;51588;53.702;10.208;2022-09-03T03:45:36;101437.81;;;23.26;44.17
64895;BME280;51588;53.702;10.208;2022-09-03T03:48:03;101443.22;;;23.26;44.24
64895;BME280;51588;53.702;10.208;2022-09-03T03:50:30;101441.56;;;23.25;44.04
64895;BME280;51588;53.702;10.208;2022-09-03T03:52:58;101453.25;;;23.26;44.07
64895;BME280;51588;53.702;10.208;2022-09-03T03:55:25;101452.66;;;23.24;44.32
64895;BME280;51588;53.702;10.208;2022-09-03T03:57:52;101463.06;;;23.27;44.01
64895;BME280;51588;53.702;10.208;2022-09-03T04:00:20;101457.25;;;23.23;44.20
64895;BME280;51588;53.702;10.208;2022-09-03T04:02:46;101458.09;;;23.24;44.14
64895;BME280;51588;53.702;10.208;2022-09-03T04:05:13;101454.53;;;23.23;44.15
64895;BME280;51588;53.702;10.208;2022-09-03T04:07:39;101453.91;;;23.21;44.45
64895;BME280;51588;53.702;10.208;2022-09-03T04:10:07;101451.00;;;23.23;43.98
64895;BME280;51588;53.702;10.208;2022-09-03T04:12:34;101451.00;;;23.23;44.12
64895;BME280;51588;53.702;10.208;2022-09-03T04:15:00;101450.16;;;23.22;44.13
64895;BME280;51588;53.702;10.208;2022-09-03T04:17:28;101451.19;;;23.21;44.22
64895;BME280;51588;53.702;10.208;2022-09-03T04:19:55;101452.28;;;23.20;44.10
64895;BME280;51588;53.702;10.208;2022-09-03T04:22:21;101457.31;;;23.17;44.09
64895;BME280;51588;53.702;10.208;2022-09-03T04:24:48;101454.59;;;23.17;44.29
64895;BME280;51588;53.702;10.208;2022-09-03T04:27:14;101453.31;;;23.19;44.14
64895;BME280;51588;53.702;10.208;2022-09-03T04:29:41;101453.53;;;23.18;43.86
64895;BME280;51588;53.702;10.208;2022-09-03T04:32:08;101458.94;;;23.18;44.19
64895;BME280;51588;53.702;10.208;2022-09-03T04:34:53;101448.09;;;23.18;44.16
64895;BME280;51588;53.702;10.208;2022-09-03T04:37:20;101455.66;;;23.16;44.10
64895;BME280;51588;53.702;10.208;2022-09-03T04:39:46;101441.91;;;23.11;43.98
64895;BME280;51588;53.702;10.208;2022-09-03T04:42:13;101456.69;;;23.15;44.11
64895;BME280;51588;53.702;10.208;2022-09-03T04:44:39;101459.41;;;23.15;44.19
64895;BME280;51588;53.702;10.208;2022-09-03T04:47:06;101457.72;;;23.14;44.15
64895;BME280;51588;53.702;10.208;2022-09-03T04:49:33;101457.72;;;23.14;43.86
64895;BME280;51588;53.702;10.208;2022-09-03T04:52:01;101463.16;;;23.14;44.04
64895;BME280;51588;53.702;10.208;2022-09-03T04:54:28;101464.84;;;23.15;44.04
64895;BME280;51588;53.702;10.208;2022-09-03T04:56:54;101465.88;;;23.14;43.99
64895;BME280;51588;53.702;10.208;2022-09-03T04:59:21;101469.66;;;23.13;43.93
64895;BME280;51588;53.702;10.208;2022-09-03T05:01:47;101467.38;;;23.10;43.99
64895;BME280;51588;53.702;10.208;2022-09-03T05:04:14;101473.19;;;23.13;44.00
64895;BME280;51588;53.702;10.208;2022-09-03T05:06:40;101479.06;;;23.10;43.94
64895;BME280;51588;53.702;10.208;2022-09-03T05:09:08;101474.47;;;23.11;44.13
64895;BME280;51588;53.702;10.208;2022-09-03T05:11:35;101470.31;;;23.08;43.91
64895;BME280;51588;53.702;10.208;2022-09-03T05:14:02;101437.06;;;22.88;43.99
64895;BME280;51588;53.702;10.208;2022-09-03T05:16:30;101476.34;;;23.10;43.86
64895;BME280;51588;53.702;10.208;2022-09-03T05:18:57;101467.38;;;23.10;43.92
64895;BME280;51588;53.702;10.208;2022-09-03T05:21:26;101473.63;;;23.10;43.75
64895;BME280;51588;53.702;10.208;2022-09-03T05:23:53;101474.66;;;23.09;43.77
64895;BME280;51588;53.702;10.208;2022-09-03T05:26:22;101474.66;;;23.09;43.91
64895;BME280;51588;53.702;10.208;2022-09-03T05:28:53;101454.56;;;22.92;43.76
64895;BME280;51588;53.702;10.208;2022-09-03T05:31:21;101472.19;;;23.08;43.88
64895;BME280;51588;53.702;10.208;2022-09-03T05:33:52;101470.31;;;23.08;43.93
64895;BME280;51588;53.702;10.208;2022-09-03T05:36:20;101463.22;;;23.07;43.79
64895;BME280;51588;53.702;10.208;2022-09-03T05:38:48;101456.75;;;23.08;43.72
64895;BME280;51588;53.702;10.208;2022-09-03T05:41:16;101459.47;;;23.08;43.75
64895;BME280;51588;53.702;10.208;2022-09-03T05:43:46;101453.19;;;23.08;43.67
64895;BME280;51588;53.702;10.208;2022-09-03T05:46:16;101456.94;;;23.07;43.82
64895;BME280;51588;53.702;10.208;2022-09-03T05:48:43;101465.94;;;23.07;43.79
64895;BME280;51588;53.702;10.208;2022-09-03T05:51:12;101429.94;;;22.87;43.95
64895;BME280;51588;53.702;10.208;2022-09-03T05:53:41;101467.81;;;23.07;43.83
64895;BME280;51588;53.702;10.208;2022-09-03T05:56:10;101468.66;;;23.07;43.89
64895;BME280;51588;53.702;10.208;2022-09-03T05:58:38;101470.75;;;23.05;43.82
64895;BME280;51588;53.702;10.208;2022-09-03T06:01:13;101476.19;;;23.05;43.83
64895;BME280;51588;53.702;10.208;2022-09-03T06:03:40;101475.13;;;23.06;43.80
64895;BME280;51588;53.702;10.208;2022-09-03T06:06:07;101472.63;;;23.05;43.84
64895;BME280;51588;53.702;10.208;2022-09-03T06:08:34;101472.63;;;23.05;43.91
64895;BME280;51588;53.702;10.208;2022-09-03T06:11:02;101476.78;;;23.07;43.90
64895;BME280;51588;53.702;10.208;2022-09-03T06:13:29;101470.53;;;23.07;44.21
64895;BME280;51588;53.702;10.208;2022-09-03T06:15:56;101471.16;;;23.09;44.54
64895;BME280;51588;53.702;10.208;2022-09-03T06:18:24;101465.53;;;23.04;44.56
64895;BME280;51588;53.702;10.208;2022-09-03T06:20:54;101475.69;;;23.15;44.74
64895;BME280;51588;53.702;10.208;2022-09-03T06:23:21;101467.09;;;23.18;44.87
64895;BME280;51588;53.702;10.208;2022-09-03T06:25:55;101470.44;;;23.20;44.62
64895;BME280;51588;53.702;10.208;2022-09-03T06:28:24;101471.28;;;23.20;44.59
64895;BME280;51588;53.702;10.208;2022-09-03T06:30:51;101470.19;;;23.21;44.88
64895;BME280;51588;53.702;10.208;2022-09-03T06:33:18;101459.63;;;23.13;44.84
64895;BME280;51588;53.702;10.208;2022-09-03T06:35:46;101471.88;;;23.22;45.12
64895;BME280;51588;53.702;10.208;2022-09-03T06:38:12;101468.94;;;23.24;44.95
64895;BME280;51588;53.702;10.208;2022-09-03T06:40:39;101471.66;;;23.24;45.11
64895;BME280;51588;53.702;10.208;2022-09-03T06:43:06;101471.41;;;23.25;45.77
64895;BME280;51588;53.702;10.208;2022-09-03T06:45:32;101473.94;;;23.27;45.68
64895;BME280;51588;53.702;10.208;2022-09-03T06:47:59;101474.13;;;23.25;45.55
64895;BME280;51588;53.702;10.208;2022-09-03T06:50:25;101479.56;;;23.25;45.34
64895;BME280;51588;53.702;10.208;2022-09-03T06:52:53;101467.34;;;23.16;46.20
64895;BME280;51588;53.702;10.208;2022-09-03T06:55:20;101471.28;;;23.20;46.67
64895;BME280;51588;53.702;10.208;2022-09-03T06:57:47;101487.91;;;23.31;46.84
64895;BME280;51588;53.702;10.208;2022-09-03T07:00:15;101493.91;;;23.33;47.46
64895;BME280;51588;53.702;10.208;2022-09-03T07:02:42;101499.16;;;23.34;47.53
64895;BME280;51588;53.702;10.208;2022-09-03T07:07:34;101492.66;;;23.35;48.42
64895;BME280;51588;53.702;10.208;2022-09-03T07:10:03;101480.13;;;23.34;48.17
64895;BME280;51588;53.702;10.208;2022-09-03T07:12:30;101485.50;;;23.41;48.80
64895;BME280;51588;53.702;10.208;2022-09-03T07:15:02;65678.19;;;-143.63;100.00
64895;BME280;51588;53.702;10.208;2022-09-03T07:17:28;65678.19;;;-143.63;100.00
64895;BME280;51588;53.702;10.208;2022-09-03T07:20:14;65678.19;;;-143.63;100.00
64895;BME280;51588;53.702;10.208;2022-09-03T07:23:01;65678.19;;;-143.63;100.00
64895;BME280;51588;53.702;10.208;2022-09-03T07:25:53;65678.19;;;-143.63;100.00
64895;BME280;51588;53.702;10.208;2022-09-03T07:28:41;65678.19;;;-143.63;100.00
64895;BME280;51588;53.702;10.208;2022-09-03T07:31:32;65678.19;;;-143.63;100.00
64895;BME280;51588;53.702;10.208;2022-09-03T07:34:21;65678.19;;;-143.63;100.00
64895;BME280;51588;53.702;10.208;2022-09-03T07:37:11;65678.19;;;-143.63;100.00
64895;BME280;51588;53.702;10.208;2022-09-03T07:39:58;65678.19;;;-143.63;100.00
64895;BME280;51588;53.702;10.208;2022-09-03T07:42:46;65678.19;;;-143.63;100.00
64895;BME280;51588;53.702;10.208;2022-09-03T07:45:33;65678.19;;;-143.63;100.00
64895;BME280;51588;53.702;10.208;2022-09-03T07:48:21;65678.19;;;-143.63;100.00
64895;BME280;51588;53.702;10.208;2022-09-03T07:51:08;65678.19;;;-143.63;100.00
64895;BME280;51588;53.702;10.208;2022-09-03T07:53:56;65678.19;;;-143.63;100.00
64895;BME280;51588;53.702;10.208;2022-09-03T07:56:44;65678.19;;;-143.63;100.00
64895;BME280;51588;53.702;10.208;2022-09-03T07:59:32;65678.19;;;-143.63;100.00
64895;BME280;51588;53.702;10.208;2022-09-03T08:02:19;65678.19;;;-143.63;100.00
64895;BME280;51588;53.702;10.208;2022-09-03T08:05:06;65678.19;;;-143.63;100.00
64895;BME280;51588;53.702;10.208;2022-09-03T08:07:53;65678.19;;;-143.63;100.00
64895;BME280;51588;53.702;10.208;2022-09-03T08:10:40;65678.19;;;-143.63;100.00
64895;BME280;51588;53.702;10.208;2022-09-03T08:13:27;65678.19;;;-143.63;100.00
64895;BME280;51588;53.702;10.208;2022-09-03T08:16:16;65678.19;;;-143.63;100.00
64895;BME280;51588;53.702;10.208;2022-09-03T08:19:04;65678.19;;;-143.63;100.00
64895;BME280;51588;53.702;10.208;2022-09-03T08:21:51;65678.19;;;-143.63;100.00
64895;BME280;51588;53.702;10.208;2022-09-03T08:24:38;65678.19;;;-143.63;100.00
64895;BME280;51588;53.702;10.208;2022-09-03T08:27:26;65678.19;;;-143.63;100.00
64895;BME280;51588;53.702;10.208;2022-09-03T08:30:14;65678.19;;;-143.63;100.00
64895;BME280;51588;53.702;10.208;2022-09-03T08:33:03;65678.19;;;-143.63;100.00
64895;BME280;51588;53.702;10.208;2022-09-03T08:35:31;65678.19;;;-143.63;100.00
64895;BME280;51588;53.702;10.208;2022-09-03T08:37:58;65678.19;;;-143.63;100.00
64895;BME280;51588;53.702;10.208;2022-09-03T08:40:48;65678.19;;;-143.63;100.00
64895;BME280;51588;53.702;10.208;2022-09-03T08:43:16;65678.19;;;-143.63;100.00
64895;BME280;51588;53.702;10.208;2022-09-03T08:45:56;65678.19;;;-143.63;100.00
64895;BME280;51588;53.702;10.208;2022-09-03T08:48:26;65678.19;;;-143.63;100.00
64895;BME280;51588;53.702;10.208;2022-09-03T08:50:55;65678.19;;;-143.63;100.00
64895;BME280;51588;53.702;10.208;2022-09-03T08:53:28;65678.19;;;-143.63;100.00
64895;BME280;51588;53.702;10.208;2022-09-03T08:56:01;65678.19;;;-143.63;100.00
64895;BME280;51588;53.702;10.208;2022-09-03T08:58:32;65678.19;;;-143.63;100.00
64895;BME280;51588;53.702;10.208;2022-09-03T09:01:03;65678.19;;;-143.63;100.00
64895;BME280;51588;53.702;10.208;2022-09-03T09:03:48;65678.19;;;-143.63;100.00
64895;BME280;51588;53.702;10.208;2022-09-03T09:06:21;65678.19;;;-143.63;100.00
64895;BME280;51588;53.702;10.208;2022-09-03T09:08:58;65678.19;;;-143.63;100.00
64895;BME280;51588;53.702;10.208;2022-09-03T09:14:19;65678.19;;;-143.63;100.00
64895;BME280;51588;53.702;10.208;2022-09-03T09:16:58;65678.19;;;-143.63;100.00
64895;BME280;51588;53.702;10.208;2022-09-03T09:19:38;65678.19;;;-143.63;100.00
64895;BME280;51588;53.702;10.208;2022-09-03T09:22:13;65678.19;;;-143.63;100.00
64895;BME280;51588;53.702;10.208;2022-09-03T09:24:44;65678.19;;;-143.63;100.00
64895;BME280;51588;53.702;10.208;2022-09-03T09:27:14;65678.19;;;-143.63;100.00
64895;BME280;51588;53.702;10.208;2022-09-03T09:29:42;65678.19;;;-143.63;100.00
64895;BME280;51588;53.702;10.208;2022-09-03T09:32:11;65678.19;;;-143.63;100.00
64895;BME280;51588;53.702;10.208;2022-09-03T09:34:41;65678.19;;;-143.63;100.00
64895;BME280;51588;53.702;10.208;2022-09-03T09:37:10;65678.19;;;-143.63;100.00
64895;BME280;51588;53.702;10.208;2022-09-03T09:39:37;65678.19;;;-143.63;100.00
64895;BME280;51588;53.702;10.208;2022-09-03T09:42:06;65678.19;;;-143.63;100.00
64895;BME280;51588;53.702;10.208;2022-09-03T09:44:34;65678.19;;;-143.63;100.00
64895;BME280;51588;53.702;10.208;2022-09-03T09:47:04;65678.19;;;-143.63;100.00
64895;BME280;51588;53.702;10.208;2022-09-03T09:49:32;65678.19;;;-143.63;100.00
64895;BME280;51588;53.702;10.208;2022-09-03T09:52:02;65678.19;;;-143.63;100.00
64895;BME280;51588;53.702;10.208;2022-09-03T09:54:29;65678.19;;;-143.63;100.00
64895;BME280;51588;53.702;10.208;2022-09-03T09:57:01;65678.19;;;-143.63;100.00
64895;BME280;51588;53.702;10.208;2022-09-03T09:59:28;65678.19;;;-143.63;100.00
64895;BME280;51588;53.702;10.208;2022-09-03T10:02:06;65678.19;;;-143.63;100.00
64895;BME280;51588;53.702;10.208;2022-09-03T10:04:34;65678.19;;;-143.63;100.00
64895;BME280;51588;53.702;10.208;2022-09-03T10:07:04;65678.19;;;-143.63;100.00
64895;BME280;51588;53.702;10.208;2022-09-03T10:09:33;65678.19;;;-143.63;100.00
64895;BME280;51588;53.702;10.208;2022-09-03T10:12:06;65678.19;;;-143.63;100.00
64895;BME280;51588;53.702;10.208;2022-09-03T10:14:41;65678.19;;;-143.63;100.00
64895;BME280;51588;53.702;10.208;2022-09-03T10:17:17;65678.19;;;-143.63;100.00
64895;BME280;51588;53.702;10.208;2022-09-03T10:19:54;65678.19;;;-143.63;100.00
64895;BME280;51588;53.702;10.208;2022-09-03T10:22:42;65678.19;;;-143.63;100.00
64895;BME280;51588;53.702;10.208;2022-09-03T10:25:13;65678.19;;;-143.63;100.00
64895;BME280;51588;53.702;10.208;2022-09-03T10:27:40;65678.19;;;-143.63;100.00
64895;BME280;51588;53.702;10.208;2022-09-03T10:30:09;65678.19;;;-143.63;100.00
64895;BME280;51588;53.702;10.208;2022-09-03T10:32:40;65678.19;;;-143.63;100.00
64895;BME280;51588;53.702;10.208;2022-09-03T10:35:17;65678.19;;;-143.63;100.00
64895;BME280;51588;53.702;10.208;2022-09-03T10:37:51;65678.19;;;-143.63;100.00
64895;BME280;51588;53.702;10.208;2022-09-03T10:40:26;65678.19;;;-143.63;100.00
64895;BME280;51588;53.702;10.208;2022-09-03T10:43:20;65678.19;;;-143.63;100.00
64895;BME280;51588;53.702;10.208;2022-09-03T10:45:59;65678.19;;;-143.63;100.00
64895;BME280;51588;53.702;10.208;2022-09-03T10:48:49;65678.19;;;-143.63;100.00
64895;BME280;51588;53.702;10.208;2022-09-03T10:51:24;65678.19;;;-143.63;100.00
64895;BME280;51588;53.702;10.208;2022-09-03T10:54:08;65678.19;;;-143.63;100.00
64895;BME280;51588;53.702;10.208;2022-09-03T10:56:44;65678.19;;;-143.63;100.00
64895;BME280;51588;53.702;10.208;2022-09-03T10:59:27;65678.19;;;-143.63;100.00
64895;BME280;51588;53.702;10.208;2022-09-03T11:02:03;65678.19;;;-143.63;100.00
64895;BME280;51588;53.702;10.208;2022-09-03T11:04:42;65678.19;;;-143.63;100.00
64895;BME280;51588;53.702;10.208;2022-09-03T11:07:16;65678.19;;;-143.63;100.00
64895;BME280;51588;53.702;10.208;2022-09-03T11:09:51;65678.19;;;-143.63;100.00
64895;BME280;51588;53.702;10.208;2022-09-03T11:12:23;65678.19;;;-143.63;100.00
64895;BME280;51588;53.702;10.208;2022-09-03T11:14:58;65678.19;;;-143.63;100.00
64895;BME280;51588;53.702;10.208;2022-09-03T11:17:33;65678.19;;;-143.63;100.00
64895;BME280;51588;53.702;10.208;2022-09-03T11:20:10;65678.19;;;-143.63;100.00
64895;BME280;51588;53.702;10.208;2022-09-03T11:22:40;65678.19;;;-143.63;100.00
64895;BME280;51588;53.702;10.208;2022-09-03T11:25:10;65678.19;;;-143.63;100.00
64895;BME280;51588;53.702;10.208;2022-09-03T11:27:51;65678.19;;;-143.63;100.00
64895;BME280;51588;53.702;10.208;2022-09-03T11:30:31;65678.19;;;-143.63;100.00
64895;BME280;51588;53.702;10.208;2022-09-03T11:33:06;65678.19;;;-143.63;100.00
64895;BME280;51588;53.702;10.208;2022-09-03T11:35:39;65678.19;;;-143.63;100.00
64895;BME280;51588;53.702;10.208;2022-09-03T11:38:19;65678.19;;;-143.63;100.00
64895;BME280;51588;53.702;10.208;2022-09-03T11:40:58;65678.19;;;-143.63;100.00
64895;BME280;51588;53.702;10.208;2022-09-03T11:43:27;65678.19;;;-143.63;100.00
64895;BME280;51588;53.702;10.208;2022-09-03T11:46:02;65678.19;;;-143.63;100.00
64895;BME280;51588;53.702;10.208;2022-09-03T11:48:35;65678.19;;;-143.63;100.00
64895;BME280;51588;53.702;10.208;2022-09-03T11:51:03;65678.19;;;-143.63;100.00
64895;BME280;51588;53.702;10.208;2022-09-03T11:53:33;65678.19;;;-143.63;100.00
64895;BME280;51588;53.702;10.208;2022-09-03T11:56:16;65678.19;;;-143.63;100.00
64895;BME280;51588;53.702;10.208;2022-09-03T11:58:43;65678.19;;;-143.63;100.00
64895;BME280;51588;53.702;10.208;2022-09-03T12:01:11;65678.19;;;-143.63;100.00
64895;BME280;51588;53.702;10.208;2022-09-03T12:03:43;65678.19;;;-143.63;100.00
64895;BME280;51588;53.702;10.208;2022-09-03T12:06:23;65678.19;;;-143.63;100.00
64895;BME280;51588;53.702;10.208;2022-09-03T12:09:02;65678.19;;;-143.63;100.00
64895;BME280;51588;53.702;10.208;2022-09-03T12:11:49;65678.19;;;-143.63;100.00
64895;BME280;51588;53.702;10.208;2022-09-03T12:14:26;65678.19;;;-143.63;100.00
64895;BME280;51588;53.702;10.208;2022-09-03T12:17:04;65678.19;;;-143.63;100.00
64895;BME280;51588;53.702;10.208;2022-09-03T12:19:40;65678.19;;;-143.63;100.00
64895;BME280;51588;53.702;10.208;2022-09-03T12:22:12;65678.19;;;-143.63;100.00
64895;BME280;51588;53.702;10.208;2022-09-03T12:24:39;65678.19;;;-143.63;100.00
64895;BME280;51588;53.702;10.208;2022-09-03T12:27:09;65678.19;;;-143.63;100.00
64895;BME280;51588;53.702;10.208;2022-09-03T12:29:49;65678.19;;;-143.63;100.00
64895;BME280;51588;53.702;10.208;2022-09-03T12:32:25;65678.19;;;-143.63;100.00
64895;BME280;51588;53.702;10.208;2022-09-03T12:34:52;65678.19;;;-143.63;100.00
64895;BME280;51588;53.702;10.208;2022-09-03T12:37:21;65678.19;;;-143.63;100.00
64895;BME280;51588;53.702;10.208;2022-09-03T12:39:50;65678.19;;;-143.63;100.00
64895;BME280;51588;53.702;10.208;2022-09-03T12:42:22;65678.19;;;-143.63;100.00
64895;BME280;51588;53.702;10.208;2022-09-03T12:44:49;65678.19;;;-143.63;100.00
64895;BME280;51588;53.702;10.208;2022-09-03T12:47:18;65678.19;;;-143.63;100.00
64895;BME280;51588;53.702;10.208;2022-09-03T12:49:47;65678.19;;;-143.63;100.00
64895;BME280;51588;53.702;10.208;2022-09-03T12:52:18;65678.19;;;-143.63;100.00
64895;BME280;51588;53.702;10.208;2022-09-03T12:54:49;65678.19;;;-143.63;100.00
64895;BME280;51588;53.702;10.208;2022-09-03T12:57:21;65678.19;;;-143.63;100.00
64895;BME280;51588;53.702;10.208;2022-09-03T12:59:52;65678.19;;;-143.63;100.00
64895;BME280;51588;53.702;10.208;2022-09-03T13:02:23;65678.19;;;-143.63;100.00
64895;BME280;51588;53.702;10.208;2022-09-03T13:04:51;65678.19;;;-143.63;100.00